createdAt,value
2023-02-03T00:00:17.711Z,3.22
2023-02-03T00:00:49.128Z,3.22
2023-02-03T00:01:05.517Z,3.11
2023-02-03T00:01:36.983Z,3.11
2023-02-03T00:01:53.375Z,3.11
2023-02-03T00:02:25.273Z,3.11
2023-02-03T00:02:56.983Z,3.11
2023-02-03T00:03:29.093Z,3.11
2023-02-03T00:04:00.996Z,3.11
2023-02-03T00:04:33.478Z,3.11
2023-02-03T00:05:05.547Z,3.11
2023-02-03T00:05:21.155Z,3.11
2023-02-03T00:05:53.569Z,3.11
2023-02-03T00:06:36.875Z,3.11
2023-02-03T00:07:09.003Z,3.11
2023-02-03T00:07:41.057Z,3.11
2023-02-03T00:08:12.753Z,3.11
2023-02-03T00:08:45.040Z,3.11
2023-02-03T00:09:16.862Z,3.11
2023-02-03T00:09:48.803Z,3.11
2023-02-03T00:10:05.486Z,3.11
2023-02-03T00:10:48.747Z,3.11
2023-02-03T00:11:20.871Z,3.11
2023-02-03T00:11:52.980Z,3.11
2023-02-03T00:12:24.710Z,3.11
2023-02-03T00:12:40.897Z,3.00
2023-02-03T00:13:12.600Z,3.00
2023-02-03T00:13:56.686Z,3.00
2023-02-03T00:14:28.448Z,3.00
2023-02-03T00:15:01.859Z,3.00
2023-02-03T00:15:32.654Z,3.00
2023-02-03T00:16:04.749Z,3.00
2023-02-03T00:16:36.452Z,3.00
2023-02-03T00:16:52.638Z,3.00
2023-02-03T00:17:24.537Z,3.00
2023-02-03T00:18:08.470Z,3.00
2023-02-03T00:18:40.483Z,3.00
2023-02-03T00:19:12.433Z,3.00
2023-02-03T00:19:44.569Z,3.00
2023-02-03T00:20:16.536Z,3.00
2023-02-03T00:20:48.502Z,3.11
2023-02-03T00:21:20.150Z,3.11
2023-02-03T00:21:36.457Z,3.11
2023-02-03T00:22:20.195Z,3.11
2023-02-03T00:22:36.477Z,3.11
2023-02-03T00:23:20.255Z,2.88
2023-02-03T00:23:52.122Z,2.88
2023-02-03T00:24:24.146Z,3.11
2023-02-03T00:24:56.097Z,2.88
2023-02-03T00:25:28.293Z,2.88
2023-02-03T00:26:00.208Z,2.88
2023-02-03T00:26:32.211Z,2.88
2023-02-03T00:27:04.360Z,2.88
2023-02-03T00:27:20.200Z,2.88
2023-02-03T00:27:52.003Z,2.88
2023-02-03T00:28:36.088Z,2.88
2023-02-03T00:29:07.920Z,2.88
2023-02-03T00:29:39.964Z,2.88
2023-02-03T00:30:13.129Z,2.88
2023-02-03T00:30:43.972Z,2.88
2023-02-03T00:31:15.899Z,2.88
2023-02-03T00:31:47.973Z,2.88
2023-02-03T00:32:20.129Z,2.88
2023-02-03T00:32:51.911Z,2.88
2023-02-03T00:33:23.793Z,2.88
2023-02-03T00:33:55.745Z,2.88
2023-02-03T00:34:27.696Z,2.88
2023-02-03T00:34:59.821Z,2.88
2023-02-03T00:35:31.931Z,2.88
2023-02-03T00:36:04.274Z,2.88
2023-02-03T00:36:19.717Z,2.88
2023-02-03T00:37:04.371Z,2.88
2023-02-03T00:37:35.820Z,2.88
2023-02-03T00:38:07.434Z,2.88
2023-02-03T00:38:39.708Z,2.88
2023-02-03T00:39:11.789Z,2.88
2023-02-03T00:39:43.575Z,2.88
2023-02-03T00:40:15.704Z,2.88
2023-02-03T00:40:47.412Z,2.88
2023-02-03T00:41:04.295Z,2.88
2023-02-03T00:41:35.453Z,2.88
2023-02-03T00:41:51.552Z,2.88
2023-02-03T00:42:23.431Z,2.88
2023-02-03T00:42:55.402Z,2.88
2023-02-03T00:43:27.357Z,2.88
2023-02-03T00:43:59.432Z,2.88
2023-02-03T00:44:31.153Z,2.88
2023-02-03T00:45:06.380Z,2.88
2023-02-03T00:45:19.395Z,2.88
2023-02-03T00:45:51.623Z,2.88
2023-02-03T00:46:35.407Z,2.88
2023-02-03T00:47:07.079Z,2.88
2023-02-03T00:47:39.340Z,2.88
2023-02-03T00:48:11.346Z,2.88
2023-02-03T00:48:43.171Z,2.88
2023-02-03T00:49:15.153Z,2.88
2023-02-03T00:49:46.965Z,2.88
2023-02-03T00:50:04.286Z,2.88
2023-02-03T00:50:46.991Z,2.88
2023-02-03T00:51:19.079Z,2.88
2023-02-03T00:51:51.030Z,2.88
2023-02-03T00:52:22.930Z,2.88
2023-02-03T00:52:55.059Z,2.88
2023-02-03T00:53:27.001Z,2.88
2023-02-03T00:53:58.830Z,2.88
2023-02-03T00:54:32.681Z,2.88
2023-02-03T00:55:04.263Z,2.88
2023-02-03T00:55:34.916Z,2.88
2023-02-03T00:56:06.808Z,2.88
2023-02-03T00:56:38.870Z,2.88
2023-02-03T00:57:10.783Z,2.88
2023-02-03T00:57:43.114Z,2.88
2023-02-03T00:58:14.880Z,2.88
2023-02-03T00:58:46.598Z,2.88
2023-02-03T00:59:18.841Z,2.88
2023-02-03T00:59:50.828Z,2.88
2023-02-03T01:00:23.144Z,2.88
2023-02-03T01:00:54.749Z,2.88
2023-02-03T01:01:26.691Z,2.88
2023-02-03T01:01:58.638Z,2.88
2023-02-03T01:02:30.468Z,2.88
2023-02-03T01:03:03.248Z,2.77
2023-02-03T01:03:34.519Z,2.77
2023-02-03T01:04:06.571Z,2.77
2023-02-03T01:04:38.452Z,2.77
2023-02-03T01:05:10.696Z,2.77
2023-02-03T01:05:42.781Z,2.77
2023-02-03T01:06:14.641Z,2.77
2023-02-03T01:06:46.208Z,2.77
2023-02-03T01:07:03.293Z,2.77
2023-02-03T01:07:46.194Z,2.77
2023-02-03T01:08:18.569Z,2.77
2023-02-03T01:08:50.584Z,2.88
2023-02-03T01:09:22.116Z,2.88
2023-02-03T01:09:54.482Z,2.88
2023-02-03T01:10:26.755Z,2.88
2023-02-03T01:10:58.325Z,2.88
2023-02-03T01:11:30.230Z,2.88
2023-02-03T01:12:03.261Z,2.88
2023-02-03T01:12:18.329Z,2.88
2023-02-03T01:13:03.058Z,2.88
2023-02-03T01:13:34.126Z,2.77
2023-02-03T01:13:50.105Z,2.77
2023-02-03T01:14:22.176Z,2.88
2023-02-03T01:15:07.119Z,2.88
2023-02-03T01:15:38.141Z,2.88
2023-02-03T01:16:10.162Z,2.88
2023-02-03T01:16:42.041Z,2.88
2023-02-03T01:17:13.933Z,2.88
2023-02-03T01:17:46.071Z,2.88
2023-02-03T01:18:17.851Z,2.88
2023-02-03T01:18:34.065Z,2.88
2023-02-03T01:19:17.850Z,2.88
2023-02-03T01:19:34.214Z,2.88
2023-02-03T01:20:18.236Z,2.88
2023-02-03T01:20:49.765Z,2.88
2023-02-03T01:21:21.822Z,2.88
2023-02-03T01:21:53.900Z,2.88
2023-02-03T01:22:25.744Z,2.88
2023-02-03T01:22:57.804Z,2.88
2023-02-03T01:23:29.656Z,2.88
2023-02-03T01:24:02.121Z,2.88
2023-02-03T01:24:17.841Z,2.88
2023-02-03T01:24:49.575Z,2.88
2023-02-03T01:25:34.018Z,2.88
2023-02-03T01:26:05.579Z,2.88
2023-02-03T01:26:37.426Z,2.88
2023-02-03T01:27:09.720Z,2.88
2023-02-03T01:27:41.879Z,2.88
2023-02-03T01:28:13.444Z,2.72
2023-02-03T01:28:45.656Z,2.72
2023-02-03T01:29:17.538Z,2.72
2023-02-03T01:29:49.436Z,2.88
2023-02-03T01:30:21.800Z,2.72
2023-02-03T01:30:53.515Z,2.72
2023-02-03T01:31:25.765Z,2.72
2023-02-03T01:31:57.605Z,2.88
2023-02-03T01:32:29.234Z,2.88
2023-02-03T01:33:01.595Z,2.88
2023-02-03T01:33:17.358Z,2.88
2023-02-03T01:34:01.470Z,2.88
2023-02-03T01:34:33.444Z,2.88
2023-02-03T01:35:05.584Z,2.72
2023-02-03T01:35:37.112Z,2.72
2023-02-03T01:36:09.212Z,2.72
2023-02-03T01:36:41.213Z,2.72
2023-02-03T01:37:13.027Z,2.72
2023-02-03T01:37:45.179Z,2.88
2023-02-03T01:38:17.005Z,2.88
2023-02-03T01:38:49.208Z,3.00
2023-02-03T01:39:21.102Z,3.00
2023-02-03T01:39:52.979Z,2.77
2023-02-03T01:40:25.949Z,3.00
2023-02-03T01:40:56.998Z,3.00
2023-02-03T01:41:28.838Z,3.00
2023-02-03T01:42:01.034Z,3.00
2023-02-03T01:42:17.057Z,2.77
2023-02-03T01:42:48.774Z,2.77
2023-02-03T01:43:33.115Z,2.77
2023-02-03T01:44:05.046Z,3.00
2023-02-03T01:44:36.718Z,3.00
2023-02-03T01:45:11.456Z,3.00
2023-02-03T01:45:40.907Z,3.00
2023-02-03T01:46:12.596Z,3.00
2023-02-03T01:46:44.709Z,3.00
2023-02-03T01:47:16.655Z,3.00
2023-02-03T01:47:48.879Z,3.00
2023-02-03T01:48:20.457Z,3.00
2023-02-03T01:48:52.752Z,3.00
2023-02-03T01:49:24.742Z,3.00
2023-02-03T01:49:56.644Z,3.00
2023-02-03T01:50:28.884Z,3.00
2023-02-03T01:51:00.663Z,3.00
2023-02-03T01:51:16.553Z,3.00
2023-02-03T01:52:00.576Z,3.00
2023-02-03T01:52:32.699Z,3.00
2023-02-03T01:53:04.845Z,3.00
2023-02-03T01:53:36.362Z,3.00
2023-02-03T01:54:08.301Z,3.00
2023-02-03T01:54:40.603Z,3.00
2023-02-03T01:55:12.491Z,3.00
2023-02-03T01:55:44.214Z,3.00
2023-02-03T01:56:00.584Z,3.00
2023-02-03T01:56:32.285Z,3.00
2023-02-03T01:56:48.445Z,3.00
2023-02-03T01:57:20.065Z,3.00
2023-02-03T01:57:52.298Z,3.00
2023-02-03T01:58:08.354Z,3.00
2023-02-03T01:58:40.218Z,3.00
2023-02-03T01:59:24.407Z,3.00
2023-02-03T01:59:56.019Z,3.00
2023-02-03T02:00:28.888Z,3.00
2023-02-03T02:01:00.400Z,3.00
2023-02-03T02:01:32.303Z,3.00
2023-02-03T02:02:04.601Z,3.00
2023-02-03T02:02:36.134Z,3.00
2023-02-03T02:03:08.095Z,3.00
2023-02-03T02:03:40.099Z,3.00
2023-02-03T02:04:12.086Z,2.88
2023-02-03T02:04:43.869Z,3.11
2023-02-03T02:05:16.208Z,3.11
2023-02-03T02:05:48.061Z,2.88
2023-02-03T02:06:19.688Z,3.11
2023-02-03T02:06:51.961Z,2.88
2023-02-03T02:07:24.107Z,3.11
2023-02-03T02:07:56.040Z,3.11
2023-02-03T02:08:27.785Z,3.11
2023-02-03T02:08:59.907Z,3.11
2023-02-03T02:09:31.982Z,3.11
2023-02-03T02:10:04.642Z,3.11
2023-02-03T02:10:35.674Z,3.11
2023-02-03T02:11:07.761Z,3.11
2023-02-03T02:11:39.843Z,3.11
2023-02-03T02:12:11.865Z,3.11
2023-02-03T02:12:43.604Z,3.11
2023-02-03T02:12:59.770Z,3.11
2023-02-03T02:13:31.739Z,3.11
2023-02-03T02:13:47.742Z,3.11
2023-02-03T02:14:19.752Z,3.11
2023-02-03T02:14:51.651Z,3.00
2023-02-03T02:15:24.102Z,3.00
2023-02-03T02:15:55.888Z,3.00
2023-02-03T02:16:27.634Z,3.00
2023-02-03T02:16:59.400Z,3.00
2023-02-03T02:17:15.732Z,3.00
2023-02-03T02:17:47.582Z,3.00
2023-02-03T02:18:31.619Z,3.00
2023-02-03T02:19:04.023Z,3.00
2023-02-03T02:19:35.322Z,3.00
2023-02-03T02:20:07.551Z,3.00
2023-02-03T02:20:39.502Z,3.00
2023-02-03T02:21:11.413Z,3.00
2023-02-03T02:21:43.256Z,3.00
2023-02-03T02:22:15.368Z,3.00
2023-02-03T02:22:47.104Z,3.00
2023-02-03T02:23:19.467Z,3.00
2023-02-03T02:23:51.320Z,3.00
2023-02-03T02:24:23.077Z,3.11
2023-02-03T02:24:55.481Z,3.00
2023-02-03T02:25:27.488Z,3.00
2023-02-03T02:25:58.986Z,3.00
2023-02-03T02:26:15.246Z,3.00
2023-02-03T02:26:59.017Z,3.00
2023-02-03T02:27:31.139Z,3.00
2023-02-03T02:28:04.335Z,3.00
2023-02-03T02:28:34.961Z,3.00
2023-02-03T02:29:07.022Z,3.00
2023-02-03T02:29:38.997Z,3.00
2023-02-03T02:30:12.508Z,3.00
2023-02-03T02:30:42.975Z,3.00
2023-02-03T02:31:15.015Z,3.11
2023-02-03T02:31:47.224Z,3.11
2023-02-03T02:32:18.961Z,3.11
2023-02-03T02:32:50.682Z,3.11
2023-02-03T02:33:22.909Z,3.11
2023-02-03T02:33:55.163Z,3.11
2023-02-03T02:34:26.690Z,3.11
2023-02-03T02:34:58.739Z,3.11
2023-02-03T02:35:14.971Z,3.11
2023-02-03T02:35:46.748Z,3.11
2023-02-03T02:36:30.937Z,3.11
2023-02-03T02:37:03.692Z,3.11
2023-02-03T02:37:34.617Z,3.11
2023-02-03T02:38:06.569Z,3.11
2023-02-03T02:38:38.577Z,3.11
2023-02-03T02:39:10.648Z,3.11
2023-02-03T02:39:42.489Z,3.11
2023-02-03T02:39:58.620Z,3.11
2023-02-03T02:40:42.870Z,3.11
2023-02-03T02:41:14.668Z,3.11
2023-02-03T02:41:46.367Z,3.11
2023-02-03T02:42:18.445Z,3.22
2023-02-03T02:42:50.300Z,3.22
2023-02-03T02:43:22.478Z,3.22
2023-02-03T02:43:54.662Z,3.22
2023-02-03T02:44:26.296Z,3.22
2023-02-03T02:44:58.268Z,3.22
2023-02-03T02:45:30.784Z,3.22
2023-02-03T02:46:03.217Z,3.22
2023-02-03T02:46:34.476Z,3.22
2023-02-03T02:47:06.068Z,3.11
2023-02-03T02:47:38.225Z,3.11
2023-02-03T02:48:10.321Z,3.22
2023-02-03T02:48:42.069Z,3.11
2023-02-03T02:48:58.273Z,3.22
2023-02-03T02:49:30.365Z,3.22
2023-02-03T02:50:14.489Z,3.22
2023-02-03T02:50:46.170Z,3.22
2023-02-03T02:51:17.930Z,3.22
2023-02-03T02:51:49.994Z,3.22
2023-02-03T02:52:22.227Z,3.22
2023-02-03T02:52:54.097Z,3.22
2023-02-03T02:53:26.067Z,3.11
2023-02-03T02:53:57.989Z,3.11
2023-02-03T02:54:14.050Z,3.11
2023-02-03T02:54:45.892Z,3.11
2023-02-03T02:55:30.267Z,3.11
2023-02-03T02:56:02.361Z,3.11
2023-02-03T02:56:17.920Z,3.11
2023-02-03T02:56:49.650Z,3.11
2023-02-03T02:57:33.856Z,3.11
2023-02-03T02:58:05.758Z,3.11
2023-02-03T02:58:37.626Z,3.11
2023-02-03T02:59:09.805Z,3.00
2023-02-03T02:59:41.807Z,3.00
2023-02-03T03:00:14.822Z,3.00
2023-02-03T03:00:45.614Z,3.00
2023-02-03T03:01:17.536Z,3.00
2023-02-03T03:01:49.592Z,3.00
2023-02-03T03:02:21.691Z,3.00
2023-02-03T03:02:53.486Z,3.00
2023-02-03T03:03:25.692Z,3.11
2023-02-03T03:03:57.601Z,3.11
2023-02-03T03:04:29.575Z,3.11
2023-02-03T03:05:01.866Z,3.11
2023-02-03T03:05:33.414Z,3.11
2023-02-03T03:06:05.760Z,3.11
2023-02-03T03:06:37.447Z,3.11
2023-02-03T03:07:09.380Z,3.11
2023-02-03T03:07:41.322Z,3.11
2023-02-03T03:08:13.467Z,3.11
2023-02-03T03:08:45.439Z,3.11
2023-02-03T03:09:17.175Z,3.11
2023-02-03T03:09:49.241Z,3.11
2023-02-03T03:10:21.589Z,3.11
2023-02-03T03:10:53.471Z,3.11
2023-02-03T03:11:25.276Z,3.11
2023-02-03T03:11:57.150Z,3.11
2023-02-03T03:12:13.503Z,3.22
2023-02-03T03:12:45.035Z,3.22
2023-02-03T03:13:29.312Z,3.22
2023-02-03T03:14:01.198Z,3.22
2023-02-03T03:14:33.070Z,3.22
2023-02-03T03:15:06.997Z,3.22
2023-02-03T03:15:37.082Z,3.22
2023-02-03T03:16:08.933Z,3.22
2023-02-03T03:16:40.976Z,3.22
2023-02-03T03:17:13.023Z,3.22
2023-02-03T03:17:44.965Z,3.22
2023-02-03T03:18:16.743Z,3.22
2023-02-03T03:18:48.843Z,3.22
2023-02-03T03:19:20.806Z,3.22
2023-02-03T03:19:53.019Z,3.22
2023-02-03T03:20:25.641Z,3.22
2023-02-03T03:20:56.664Z,3.22
2023-02-03T03:21:12.930Z,3.22
2023-02-03T03:21:56.740Z,3.22
2023-02-03T03:22:28.916Z,3.22
2023-02-03T03:23:00.747Z,3.22
2023-02-03T03:23:32.609Z,3.22
2023-02-03T03:24:05.291Z,3.22
2023-02-03T03:24:36.635Z,3.22
2023-02-03T03:25:08.729Z,3.22
2023-02-03T03:25:40.617Z,3.22
2023-02-03T03:25:56.882Z,3.22
2023-02-03T03:26:28.575Z,3.22
2023-02-03T03:26:44.669Z,3.22
2023-02-03T03:27:16.423Z,3.22
2023-02-03T03:27:48.409Z,3.22
2023-02-03T03:28:20.524Z,3.22
2023-02-03T03:28:52.674Z,3.22
2023-02-03T03:29:24.523Z,3.22
2023-02-03T03:29:56.504Z,3.22
2023-02-03T03:30:29.188Z,3.22
2023-02-03T03:31:00.690Z,3.22
2023-02-03T03:31:32.610Z,3.22
2023-02-03T03:32:05.118Z,3.22
2023-02-03T03:32:36.477Z,3.22
2023-02-03T03:33:08.383Z,3.11
2023-02-03T03:33:40.628Z,3.22
2023-02-03T03:33:56.396Z,3.22
2023-02-03T03:34:40.266Z,3.11
2023-02-03T03:35:12.627Z,3.11
2023-02-03T03:35:44.442Z,3.11
2023-02-03T03:36:16.064Z,3.11
2023-02-03T03:36:48.023Z,3.11
2023-02-03T03:37:20.115Z,3.11
2023-02-03T03:37:52.489Z,3.11
2023-02-03T03:38:24.107Z,3.11
2023-02-03T03:38:56.186Z,3.11
2023-02-03T03:39:28.157Z,3.11
2023-02-03T03:40:00.046Z,3.11
2023-02-03T03:40:32.376Z,3.11
2023-02-03T03:41:04.675Z,3.11
2023-02-03T03:41:35.863Z,3.11
2023-02-03T03:42:08.011Z,3.11
2023-02-03T03:42:39.831Z,3.11
2023-02-03T03:43:11.751Z,3.11
2023-02-03T03:43:28.237Z,3.11
2023-02-03T03:44:11.823Z,3.11
2023-02-03T03:44:43.925Z,3.11
2023-02-03T03:45:17.283Z,3.11
2023-02-03T03:45:47.587Z,3.11
2023-02-03T03:46:19.922Z,3.11
2023-02-03T03:46:52.067Z,3.11
2023-02-03T03:47:23.802Z,3.11
2023-02-03T03:47:55.763Z,3.11
2023-02-03T03:48:27.703Z,3.11
2023-02-03T03:48:59.643Z,3.11
2023-02-03T03:49:31.506Z,3.11
2023-02-03T03:50:04.561Z,3.11
2023-02-03T03:50:35.702Z,3.11
2023-02-03T03:51:07.646Z,3.22
2023-02-03T03:51:39.409Z,3.22
2023-02-03T03:51:55.849Z,3.22
2023-02-03T03:52:39.529Z,3.22
2023-02-03T03:52:55.824Z,3.22
2023-02-03T03:53:39.457Z,3.22
2023-02-03T03:54:11.811Z,3.22
2023-02-03T03:54:43.512Z,3.22
2023-02-03T03:55:15.644Z,3.22
2023-02-03T03:55:47.318Z,3.22
2023-02-03T03:56:19.478Z,3.22
2023-02-03T03:56:51.092Z,3.22
2023-02-03T03:57:23.519Z,3.22
2023-02-03T03:57:55.517Z,3.22
2023-02-03T03:58:27.348Z,3.22
2023-02-03T03:58:59.203Z,3.22
2023-02-03T03:59:31.290Z,3.22
2023-02-03T04:00:06.378Z,3.22
2023-02-03T04:00:35.395Z,3.22
2023-02-03T04:01:07.150Z,3.22
2023-02-03T04:01:39.266Z,3.22
2023-02-03T04:02:11.342Z,3.22
2023-02-03T04:02:43.483Z,3.00
2023-02-03T04:03:15.037Z,3.00
2023-02-03T04:03:46.910Z,3.00
2023-02-03T04:04:19.135Z,3.11
2023-02-03T04:04:50.920Z,3.11
2023-02-03T04:05:23.217Z,3.27
2023-02-03T04:05:55.262Z,3.11
2023-02-03T04:06:26.920Z,3.27
2023-02-03T04:06:59.023Z,3.22
2023-02-03T04:07:30.729Z,3.22
2023-02-03T04:08:03.421Z,3.22
2023-02-03T04:08:35.090Z,3.22
2023-02-03T04:09:06.915Z,3.22
2023-02-03T04:09:38.710Z,3.22
2023-02-03T04:09:55.066Z,3.22
2023-02-03T04:10:39.054Z,3.22
2023-02-03T04:11:10.760Z,3.22
2023-02-03T04:11:42.749Z,3.22
2023-02-03T04:12:14.676Z,3.22
2023-02-03T04:12:46.637Z,3.22
2023-02-03T04:13:18.646Z,3.22
2023-02-03T04:13:50.653Z,3.22
2023-02-03T04:14:22.670Z,3.22
2023-02-03T04:14:54.519Z,3.22
2023-02-03T04:15:11.366Z,3.22
2023-02-03T04:15:54.618Z,3.22
2023-02-03T04:16:26.723Z,3.22
2023-02-03T04:16:58.379Z,3.22
2023-02-03T04:17:30.310Z,3.22
2023-02-03T04:18:03.304Z,3.22
2023-02-03T04:18:34.622Z,3.22
2023-02-03T04:19:08.377Z,3.22
2023-02-03T04:19:38.308Z,3.22
2023-02-03T04:20:10.656Z,3.22
2023-02-03T04:20:42.390Z,3.22
2023-02-03T04:21:14.259Z,3.27
2023-02-03T04:21:46.348Z,3.27
2023-02-03T04:22:18.292Z,3.27
2023-02-03T04:22:50.296Z,3.27
2023-02-03T04:23:22.282Z,3.27
2023-02-03T04:23:54.202Z,3.27
2023-02-03T04:24:10.267Z,3.22
2023-02-03T04:24:42.004Z,3.22
2023-02-03T04:25:26.562Z,3.22
2023-02-03T04:25:57.957Z,3.22
2023-02-03T04:26:14.429Z,3.22
2023-02-03T04:26:45.899Z,3.22
2023-02-03T04:27:29.979Z,3.22
2023-02-03T04:28:02.836Z,3.22
2023-02-03T04:28:34.139Z,3.22
2023-02-03T04:29:06.192Z,3.22
2023-02-03T04:29:38.087Z,3.22
2023-02-03T04:30:10.619Z,3.27
2023-02-03T04:30:42.087Z,3.27
2023-02-03T04:31:14.122Z,3.27
2023-02-03T04:31:45.932Z,3.27
2023-02-03T04:32:17.651Z,3.27
2023-02-03T04:32:49.782Z,3.27
2023-02-03T04:33:21.784Z,3.27
2023-02-03T04:33:54.161Z,3.27
2023-02-03T04:34:25.751Z,3.27
2023-02-03T04:34:41.741Z,3.27
2023-02-03T04:35:14.071Z,3.22
2023-02-03T04:35:57.503Z,3.22
2023-02-03T04:36:29.840Z,3.38
2023-02-03T04:37:02.029Z,3.38
2023-02-03T04:37:33.537Z,3.38
2023-02-03T04:38:05.845Z,3.38
2023-02-03T04:38:37.576Z,3.38
2023-02-03T04:39:09.408Z,3.38
2023-02-03T04:39:25.737Z,3.38
2023-02-03T04:40:09.623Z,3.38
2023-02-03T04:40:25.909Z,3.38
2023-02-03T04:41:10.667Z,3.38
2023-02-03T04:41:42.793Z,3.38
2023-02-03T04:42:13.616Z,3.38
2023-02-03T04:42:45.352Z,3.38
2023-02-03T04:43:17.354Z,3.38
2023-02-03T04:43:49.430Z,3.38
2023-02-03T04:44:21.252Z,3.27
2023-02-03T04:44:53.436Z,3.27
2023-02-03T04:45:10.305Z,3.27
2023-02-03T04:45:41.377Z,3.27
2023-02-03T04:46:25.421Z,3.27
2023-02-03T04:46:57.082Z,3.27
2023-02-03T04:47:29.153Z,3.27
2023-02-03T04:48:01.241Z,3.27
2023-02-03T04:48:33.358Z,3.27
2023-02-03T04:49:05.547Z,3.27
2023-02-03T04:49:36.987Z,3.27
2023-02-03T04:49:53.629Z,3.27
2023-02-03T04:50:37.368Z,3.27
2023-02-03T04:51:09.189Z,3.27
2023-02-03T04:51:41.156Z,3.27
2023-02-03T04:52:12.966Z,3.27
2023-02-03T04:52:45.211Z,3.50
2023-02-03T04:53:17.097Z,3.50
2023-02-03T04:53:48.853Z,3.50
2023-02-03T04:54:21.019Z,3.50
2023-02-03T04:54:53.060Z,3.50
2023-02-03T04:55:25.446Z,3.50
2023-02-03T04:55:56.909Z,3.50
2023-02-03T04:56:28.906Z,3.50
2023-02-03T04:57:00.873Z,3.50
2023-02-03T04:57:33.065Z,3.50
2023-02-03T04:58:05.256Z,3.38
2023-02-03T04:58:36.718Z,3.38
2023-02-03T04:59:08.839Z,3.38
2023-02-03T04:59:40.848Z,3.38
2023-02-03T05:00:13.877Z,3.38
2023-02-03T05:00:44.698Z,3.38
2023-02-03T05:01:16.867Z,3.61
2023-02-03T05:01:48.641Z,3.61
2023-02-03T05:02:20.483Z,3.61
2023-02-03T05:02:52.816Z,3.61
2023-02-03T05:03:26.292Z,3.61
2023-02-03T05:03:56.691Z,3.61
2023-02-03T05:04:28.529Z,3.61
2023-02-03T05:05:00.730Z,3.61
2023-02-03T05:05:32.832Z,3.61
2023-02-03T05:06:04.963Z,3.61
2023-02-03T05:06:36.557Z,3.61
2023-02-03T05:06:52.648Z,3.61
2023-02-03T05:07:36.459Z,3.61
2023-02-03T05:08:08.417Z,3.50
2023-02-03T05:08:40.255Z,3.50
2023-02-03T05:09:12.485Z,3.50
2023-02-03T05:09:44.255Z,3.50
2023-02-03T05:10:16.659Z,3.50
2023-02-03T05:10:48.271Z,3.50
2023-02-03T05:11:20.176Z,3.50
2023-02-03T05:11:52.231Z,3.50
2023-02-03T05:12:24.387Z,3.50
2023-02-03T05:12:56.550Z,3.50
2023-02-03T05:13:28.036Z,3.61
2023-02-03T05:14:00.094Z,3.61
2023-02-03T05:14:32.236Z,3.61
2023-02-03T05:15:06.549Z,3.61
2023-02-03T05:15:36.094Z,3.61
2023-02-03T05:16:08.184Z,3.61
2023-02-03T05:16:40.100Z,3.61
2023-02-03T05:17:12.234Z,3.61
2023-02-03T05:17:43.908Z,3.61
2023-02-03T05:18:15.885Z,3.61
2023-02-03T05:18:47.887Z,3.61
2023-02-03T05:19:20.074Z,3.61
2023-02-03T05:19:51.775Z,3.61
2023-02-03T05:20:08.210Z,3.61
2023-02-03T05:20:39.776Z,3.61
2023-02-03T05:21:24.231Z,3.61
2023-02-03T05:21:55.991Z,3.61
2023-02-03T05:22:27.699Z,3.61
2023-02-03T05:22:59.831Z,3.61
2023-02-03T05:23:31.784Z,3.61
2023-02-03T05:24:04.310Z,3.61
2023-02-03T05:24:35.773Z,3.61
2023-02-03T05:24:51.786Z,3.61
2023-02-03T05:25:35.974Z,3.38
2023-02-03T05:26:07.618Z,3.38
2023-02-03T05:26:39.793Z,3.38
2023-02-03T05:27:11.653Z,3.38
2023-02-03T05:27:43.593Z,3.38
2023-02-03T05:28:15.726Z,3.38
2023-02-03T05:28:47.636Z,3.38
2023-02-03T05:29:19.373Z,3.38
2023-02-03T05:29:51.496Z,3.38
2023-02-03T05:30:23.976Z,3.38
2023-02-03T05:30:55.552Z,3.38
2023-02-03T05:31:27.298Z,3.38
2023-02-03T05:31:59.374Z,3.38
2023-02-03T05:32:31.248Z,3.38
2023-02-03T05:33:04.211Z,3.38
2023-02-03T05:33:35.515Z,3.38
2023-02-03T05:33:51.495Z,3.38
2023-02-03T05:34:23.161Z,3.38
2023-02-03T05:34:41.336Z,3.38
2023-02-03T05:35:11.629Z,3.38
2023-02-03T05:35:43.103Z,3.38
2023-02-03T05:36:15.166Z,3.38
2023-02-03T05:36:47.191Z,3.38
2023-02-03T05:37:19.045Z,3.38
2023-02-03T05:37:51.002Z,3.38
2023-02-03T05:38:07.022Z,3.38
2023-02-03T05:38:39.083Z,3.38
2023-02-03T05:39:23.231Z,3.38
2023-02-03T05:39:55.157Z,3.38
2023-02-03T05:40:27.424Z,3.38
2023-02-03T05:40:58.960Z,3.38
2023-02-03T05:41:30.911Z,3.38
2023-02-03T05:42:03.847Z,3.38
2023-02-03T05:42:35.092Z,3.38
2023-02-03T05:42:51.001Z,3.38
2023-02-03T05:43:34.709Z,3.38
2023-02-03T05:44:06.847Z,3.38
2023-02-03T05:44:39.040Z,3.38
2023-02-03T05:45:11.757Z,3.38
2023-02-03T05:45:42.943Z,3.38
2023-02-03T05:46:14.930Z,3.38
2023-02-03T05:46:46.925Z,3.38
2023-02-03T05:47:18.713Z,3.38
2023-02-03T05:47:50.762Z,3.61
2023-02-03T05:48:22.875Z,3.61
2023-02-03T05:48:54.860Z,3.61
2023-02-03T05:49:26.712Z,3.61
2023-02-03T05:49:58.748Z,3.61
2023-02-03T05:50:30.946Z,3.61
2023-02-03T05:51:03.395Z,3.61
2023-02-03T05:51:34.576Z,3.50
2023-02-03T05:51:50.638Z,3.50
2023-02-03T05:52:22.627Z,3.50
2023-02-03T05:53:06.547Z,3.50
2023-02-03T05:53:38.663Z,3.50
2023-02-03T05:54:10.327Z,3.50
2023-02-03T05:54:42.428Z,3.50
2023-02-03T05:55:14.653Z,3.50
2023-02-03T05:55:46.442Z,3.50
2023-02-03T05:56:18.288Z,3.50
2023-02-03T05:56:50.210Z,3.50
2023-02-03T05:57:22.267Z,3.50
2023-02-03T05:57:54.275Z,3.50
2023-02-03T05:58:26.164Z,3.50
2023-02-03T05:58:58.133Z,3.50
2023-02-03T05:59:30.277Z,3.50
2023-02-03T06:00:05.637Z,3.50
2023-02-03T06:00:34.252Z,3.50
2023-02-03T06:01:06.076Z,3.50
2023-02-03T06:01:38.114Z,3.50
2023-02-03T06:02:10.199Z,3.50
2023-02-03T06:02:42.124Z,3.50
2023-02-03T06:03:13.985Z,3.50
2023-02-03T06:03:46.511Z,3.50
2023-02-03T06:04:18.134Z,3.50
2023-02-03T06:04:49.852Z,3.50
2023-02-03T06:05:06.450Z,3.50
2023-02-03T06:05:49.981Z,3.50
2023-02-03T06:06:06.214Z,3.50
2023-02-03T06:06:49.885Z,3.50
2023-02-03T06:07:22.060Z,3.50
2023-02-03T06:07:53.847Z,3.50
2023-02-03T06:08:25.825Z,3.50
2023-02-03T06:08:57.874Z,3.50
2023-02-03T06:09:29.944Z,3.50
2023-02-03T06:10:02.261Z,3.27
2023-02-03T06:10:34.032Z,3.27
2023-02-03T06:11:05.981Z,3.27
2023-02-03T06:11:37.723Z,3.38
2023-02-03T06:12:09.744Z,3.38
2023-02-03T06:12:41.865Z,3.38
2023-02-03T06:13:13.608Z,3.38
2023-02-03T06:13:45.825Z,3.38
2023-02-03T06:14:17.424Z,3.38
2023-02-03T06:14:49.540Z,3.38
2023-02-03T06:15:06.977Z,3.38
2023-02-03T06:15:37.359Z,3.38
2023-02-03T06:16:21.752Z,3.38
2023-02-03T06:16:53.509Z,3.38
2023-02-03T06:17:25.540Z,3.38
2023-02-03T06:17:57.611Z,3.38
2023-02-03T06:18:29.547Z,3.38
2023-02-03T06:19:01.496Z,3.38
2023-02-03T06:19:33.645Z,3.22
2023-02-03T06:19:49.466Z,3.22
2023-02-03T06:20:33.844Z,3.27
2023-02-03T06:21:05.594Z,3.27
2023-02-03T06:21:37.156Z,3.27
2023-02-03T06:22:09.362Z,3.27
2023-02-03T06:22:41.420Z,3.27
2023-02-03T06:23:13.376Z,3.27
2023-02-03T06:23:45.273Z,3.27
2023-02-03T06:24:17.048Z,3.27
2023-02-03T06:24:49.211Z,3.27
2023-02-03T06:25:21.459Z,3.27
2023-02-03T06:25:52.915Z,3.27
2023-02-03T06:26:25.210Z,3.27
2023-02-03T06:26:57.330Z,3.27
2023-02-03T06:27:29.068Z,3.27
2023-02-03T06:28:01.146Z,3.50
2023-02-03T06:28:33.106Z,3.50
2023-02-03T06:29:05.071Z,3.50
2023-02-03T06:29:37.062Z,3.50
2023-02-03T06:30:09.849Z,3.22
2023-02-03T06:30:40.845Z,3.38
2023-02-03T06:31:13.243Z,3.38
2023-02-03T06:31:45.208Z,3.38
2023-02-03T06:32:16.777Z,3.38
2023-02-03T06:32:48.776Z,3.38
2023-02-03T06:33:04.916Z,3.38
2023-02-03T06:33:36.793Z,3.38
2023-02-03T06:34:20.894Z,3.22
2023-02-03T06:34:52.697Z,3.22
2023-02-03T06:35:25.033Z,3.27
2023-02-03T06:35:56.754Z,3.27
2023-02-03T06:36:28.684Z,3.27
2023-02-03T06:37:00.719Z,3.27
2023-02-03T06:37:32.705Z,3.27
2023-02-03T06:38:04.989Z,3.27
2023-02-03T06:38:36.719Z,3.27
2023-02-03T06:39:08.588Z,3.27
2023-02-03T06:39:40.577Z,3.27
2023-02-03T06:40:13.055Z,3.22
2023-02-03T06:40:44.647Z,3.22
2023-02-03T06:41:16.590Z,3.22
2023-02-03T06:41:48.455Z,3.22
2023-02-03T06:42:04.825Z,3.22
2023-02-03T06:42:48.525Z,3.22
2023-02-03T06:43:20.593Z,3.22
2023-02-03T06:43:52.328Z,3.22
2023-02-03T06:44:24.370Z,3.22
2023-02-03T06:44:56.406Z,3.22
2023-02-03T06:45:28.687Z,3.22
2023-02-03T06:46:00.227Z,3.22
2023-02-03T06:46:32.290Z,3.22
2023-02-03T06:47:05.215Z,3.22
2023-02-03T06:47:36.283Z,3.22
2023-02-03T06:48:08.015Z,3.22
2023-02-03T06:48:40.211Z,3.22
2023-02-03T06:49:12.267Z,3.22
2023-02-03T06:49:44.136Z,3.22
2023-02-03T06:50:16.301Z,3.22
2023-02-03T06:50:48.811Z,3.22
2023-02-03T06:51:19.939Z,3.22
2023-02-03T06:51:52.183Z,3.22
2023-02-03T06:52:23.934Z,3.22
2023-02-03T06:52:55.963Z,3.22
2023-02-03T06:53:28.020Z,3.22
2023-02-03T06:54:00.019Z,3.22
2023-02-03T06:54:31.685Z,3.22
2023-02-03T06:54:48.129Z,3.22
2023-02-03T06:55:32.288Z,3.22
2023-02-03T06:56:05.024Z,3.22
2023-02-03T06:56:35.717Z,3.22
2023-02-03T06:57:07.788Z,3.22
2023-02-03T06:57:40.125Z,3.22
2023-02-03T06:58:12.037Z,3.22
2023-02-03T06:58:43.763Z,3.22